Time;durP1;ratioP1;P1;durP2;ratioP2;P2;SDS_P1;SDS_P2;PMS_P1;PMS_P2;Temp;Humidity;BMP_temperature;BMP_pressure;BME280_temperature;BME280_humidity;BME280_pressure;Samples;Min_cycle;Max_cycle;Signal;HPM_P1;HPM_P2
2021/01/18 00:00:17;;;;;;;;;;;5.50;99.90;;;;;;5070817;28;19913;-84
2021/01/18 00:02:42;;;;;;;;;;;5.50;99.90;;;;;;5081429;28;20594;-85
2021/01/18 00:05:08;;;;;;;;;;;5.50;99.90;;;;;;5075049;28;19913;-85
2021/01/18 00:07:43;;;;;;;;;;;5.50;99.90;;;;;;5077021;28;19975;-86
2021/01/18 00:10:10;;;;;;;;;;;5.60;99.90;;;;;;5077536;28;19912;-85
2021/01/18 00:12:36;;;;;;;;;;;5.50;99.90;;;;;;5080473;28;19917;-84
2021/01/18 00:15:01;;;;;;;;;;;5.50;99.90;;;;;;5080518;28;19912;-85
2021/01/18 00:17:26;;;;;;;;;;;5.50;99.90;;;;;;5083210;28;19913;-85
2021/01/18 00:19:52;;;;;;;;;;;5.50;99.90;;;;;;5082443;28;19916;-85
2021/01/18 00:22:17;;;;;;;;;;;5.50;99.90;;;;;;5073010;28;19924;-85
2021/01/18 00:24:43;;;;;;;;;;;5.40;99.90;;;;;;5082288;28;19908;-85
2021/01/18 00:27:08;;;;;;;;;;;5.40;99.90;;;;;;5082114;28;19912;-85
2021/01/18 00:29:34;;;;;;;;;;;5.40;99.90;;;;;;5081764;28;19975;-85
2021/01/18 00:31:59;;;;;;;;;;;5.30;99.90;;;;;;5081710;28;19935;-85
2021/01/18 00:34:24;;;;;;;;;;;5.30;99.90;;;;;;5082346;28;19939;-85
2021/01/18 00:36:51;;;;;;;;;;;5.30;99.90;;;;;;5077101;28;19912;-85
2021/01/18 00:39:16;;;;;;;;;;;5.30;99.90;;;;;;5093864;28;20373;-85
2021/01/18 00:41:42;;;;;;;;;;;5.30;99.90;;;;;;5084883;28;19966;-85
2021/01/18 00:44:07;;;;;;;;;;;5.20;99.90;;;;;;5075972;28;19913;-84
2021/01/18 00:46:33;;;;;;;;;;;5.20;99.90;;;;;;5063239;28;20338;-85
2021/01/18 00:48:58;;;;;;;;;;;5.30;99.90;;;;;;5076995;28;19927;-85
2021/01/18 00:51:24;;;;;;;;;;;5.20;99.90;;;;;;5078845;28;19912;-85
2021/01/18 00:53:49;;;;;;;;;;;5.20;99.90;;;;;;5071062;28;19996;-85
2021/01/18 00:56:15;;;;;;;;;;;5.20;99.90;;;;;;5079357;28;19920;-85
2021/01/18 00:58:41;;;;;;;;;;;5.20;99.90;;;;;;5079308;28;19913;-85
2021/01/18 01:01:07;;;;;;;;;;;5.20;99.90;;;;;;5072167;28;19935;-85
2021/01/18 01:03:32;;;;;;;;;;;5.20;99.90;;;;;;5080192;28;19917;-85
2021/01/18 01:05:58;;;;;;;;;;;5.20;99.90;;;;;;5078687;28;19919;-85
2021/01/18 01:08:23;;;;;;;;;;;5.20;99.90;;;;;;5067417;28;20303;-85
2021/01/18 01:10:49;;;;;;;;;;;5.20;99.90;;;;;;5083738;28;19909;-86
2021/01/18 01:13:14;;;;;;;;;;;5.20;99.90;;;;;;5084474;28;19916;-85
2021/01/18 01:15:40;;;;;;;;;;;5.20;99.90;;;;;;5066181;28;19970;-85
2021/01/18 01:18:05;;;;;;;;;;;5.20;99.90;;;;;;5084734;28;19915;-85
2021/01/18 01:20:31;;;;;;;;;;;5.20;99.90;;;;;;5083656;28;19955;-85
2021/01/18 01:22:56;;;;;;;;;;;5.20;99.90;;;;;;5070814;28;19982;-85
2021/01/18 01:25:23;;;;;;;;;;;5.20;99.90;;;;;;5068994;28;20322;-85
2021/01/18 01:27:49;;;;;;;;;;;5.20;99.90;;;;;;5087295;28;19917;-86
2021/01/18 01:30:16;;;;;;;;;;;5.20;99.90;;;;;;5086598;28;19913;-86
2021/01/18 01:32:42;;;;;;;;;;;5.20;99.90;;;;;;5086133;28;19912;-86
2021/01/18 01:35:09;;;;;;;;;;;5.20;99.90;;;;;;5085358;28;19916;-86
2021/01/18 01:37:34;;;;;;;;;;;5.20;99.90;;;;;;5078655;28;19913;-85
2021/01/18 01:40:00;;;;;;;;;;;5.20;99.90;;;;;;5082528;28;19909;-85
2021/01/18 01:42:25;;;;;;;;;;;5.20;99.90;;;;;;5084994;28;19912;-85
2021/01/18 01:44:51;;;;;;;;;;;5.20;99.90;;;;;;5077473;28;20277;-86
2021/01/18 01:47:37;;;;;;;;;;;5.30;99.90;;;;;;5082519;28;19916;-86
2021/01/18 01:50:05;;;;;;;;;;;5.20;99.90;;;;;;5081960;28;19917;-86
2021/01/18 01:52:30;;;;;;;;;;;5.20;99.90;;;;;;5079890;28;19915;-85
2021/01/18 01:54:58;;;;;;;;;;;5.20;99.90;;;;;;5085405;28;20314;-86
2021/01/18 01:57:25;;;;;;;;;;;5.20;99.90;;;;;;5083948;28;19908;-85
2021/01/18 01:59:50;;;;;;;;;;;5.20;99.90;;;;;;5065540;28;19912;-85
2021/01/18 02:02:16;;;;;;;;;;;5.20;99.90;;;;;;5066061;28;19920;-86
2021/01/18 02:04:41;;;;;;;;;;;5.20;99.90;;;;;;5079626;28;19924;-85
2021/01/18 02:07:39;;;;;;;;;;;5.20;99.90;;;;;;5077207;28;19917;-86
2021/01/18 02:10:05;;;;;;;;;;;5.20;99.90;;;;;;5031391;28;19913;-86
2021/01/18 02:12:31;;;;;;;;;;;5.20;99.90;;;;;;5071943;28;20384;-85
2021/01/18 02:15:08;;;;;;;;;;;5.20;99.90;;;;;;5068449;28;20585;-85
2021/01/18 02:17:43;;;;;;;;;;;5.10;99.90;;;;;;5067687;28;19913;-85
2021/01/18 02:20:14;;;;;;;;;;;5.20;99.90;;;;;;5060287;28;19909;-85
2021/01/18 02:22:40;;;;;;;;;;;5.10;99.90;;;;;;5069839;28;19912;-85
2021/01/18 02:25:29;;;;;;;;;;;5.10;99.90;;;;;;5078411;28;19967;-85
2021/01/18 02:28:06;;;;;;;;;;;5.10;99.90;;;;;;5077783;28;19970;-85
2021/01/18 02:30:56;;;;;;;;;;;5.10;99.90;;;;;;5075971;28;20328;-86
2021/01/18 02:33:25;;;;;;;;;;;5.10;99.90;;;;;;5078880;28;19917;-85
2021/01/18 02:35:56;;;;;;;;;;;5.00;99.90;;;;;;5074082;28;19912;-85
2021/01/18 02:38:24;;;;;;;;;;;5.00;99.90;;;;;;5075743;28;19928;-85
2021/01/18 02:40:59;;;;;;;;;;;5.00;99.90;;;;;;5080891;28;20284;-85
2021/01/18 02:43:28;;;;;;;;;;;5.00;99.90;;;;;;5076084;28;19919;-85
2021/01/18 02:45:54;;;;;;;;;;;5.00;99.90;;;;;;5080051;28;19909;-85
2021/01/18 02:48:21;;;;;;;;;;;5.00;99.90;;;;;;5078539;28;19920;-85
2021/01/18 02:50:47;;;;;;;;;;;5.00;99.90;;;;;;5072557;28;20363;-85
2021/01/18 02:53:13;;;;;;;;;;;5.00;99.90;;;;;;5078181;28;19920;-85
2021/01/18 02:55:38;;;;;;;;;;;5.00;99.90;;;;;;5080874;28;19967;-85
2021/01/18 02:58:07;;;;;;;;;;;5.00;99.90;;;;;;5080380;28;19965;-85
2021/01/18 03:00:35;;;;;;;;;;;5.00;99.90;;;;;;5075751;28;20384;-85
2021/01/18 03:03:19;;;;;;;;;;;5.00;99.90;;;;;;5075987;28;20416;-85
2021/01/18 03:06:00;;;;;;;;;;;5.00;99.90;;;;;;5076773;28;19919;-85
2021/01/18 03:08:31;;;;;;;;;;;5.00;99.90;;;;;;5078214;28;19923;-84
2021/01/18 03:11:02;;;;;;;;;;;5.00;99.90;;;;;;5082063;28;19913;-85
2021/01/18 03:14:00;;;;;;;;;;;5.00;99.90;;;;;;5083404;28;19917;-85
2021/01/18 03:16:28;;;;;;;;;;;5.00;99.90;;;;;;5037055;28;19999;-85
2021/01/18 03:18:57;;;;;;;;;;;4.90;99.90;;;;;;5073570;28;19955;-85
2021/01/18 03:21:22;;;;;;;;;;;5.00;99.90;;;;;;5086266;28;20022;-85
2021/01/18 03:23:48;;;;;;;;;;;4.90;99.90;;;;;;5084505;28;19920;-86
2021/01/18 03:26:13;;;;;;;;;;;5.00;99.90;;;;;;5085049;28;19959;-85
2021/01/18 03:28:39;;;;;;;;;;;4.90;99.90;;;;;;5083364;28;19912;-85
2021/01/18 03:31:05;;;;;;;;;;;4.90;99.90;;;;;;5083803;28;19962;-86
2021/01/18 03:33:31;;;;;;;;;;;4.80;99.90;;;;;;5084609;28;19923;-86
2021/01/18 03:35:56;;;;;;;;;;;4.80;99.90;;;;;;5085843;28;19940;-85
2021/01/18 03:38:23;;;;;;;;;;;4.70;99.90;;;;;;5085728;28;19912;-85
2021/01/18 03:40:49;;;;;;;;;;;4.70;99.90;;;;;;5072075;28;19920;-85
2021/01/18 03:43:14;;;;;;;;;;;4.70;99.90;;;;;;5085222;28;19968;-85
2021/01/18 03:45:41;;;;;;;;;;;4.70;99.90;;;;;;5085620;28;19909;-85
2021/01/18 03:48:08;;;;;;;;;;;4.70;99.90;;;;;;5084841;28;19966;-85
2021/01/18 03:50:33;;;;;;;;;;;4.70;99.90;;;;;;5084898;28;19915;-86
2021/01/18 03:52:59;;;;;;;;;;;4.70;99.90;;;;;;5084329;28;19917;-86
2021/01/18 03:55:25;;;;;;;;;;;4.70;99.90;;;;;;5086491;28;19909;-85
2021/01/18 03:57:51;;;;;;;;;;;4.70;99.90;;;;;;5072371;28;19913;-86
2021/01/18 04:00:21;;;;;;;;;;;4.70;99.90;;;;;;5084267;28;20383;-86
2021/01/18 04:02:47;;;;;;;;;;;4.70;99.90;;;;;;5081602;28;20338;-86
2021/01/18 04:05:13;;;;;;;;;;;4.70;99.90;;;;;;5083586;28;19944;-86
2021/01/18 04:07:39;;;;;;;;;;;4.70;99.90;;;;;;5082882;28;20003;-85
2021/01/18 04:10:05;;;;;;;;;;;4.70;99.90;;;;;;5082152;28;19916;-85
2021/01/18 04:12:30;;;;;;;;;;;4.70;99.90;;;;;;5085104;28;19914;-85
2021/01/18 04:14:56;;;;;;;;;;;4.70;99.90;;;;;;5078482;28;19917;-85
2021/01/18 04:17:21;;;;;;;;;;;4.80;99.90;;;;;;5080622;28;19913;-85
2021/01/18 04:19:47;;;;;;;;;;;4.80;99.90;;;;;;5085456;28;19919;-83
2021/01/18 04:22:12;;;;;;;;;;;4.80;99.90;;;;;;5087215;28;19912;-82
2021/01/18 04:24:38;;;;;;;;;;;4.80;99.90;;;;;;5085491;28;19913;-83
2021/01/18 04:27:05;;;;;;;;;;;4.80;99.90;;;;;;5084762;28;19912;-83
2021/01/18 04:29:31;;;;;;;;;;;4.80;99.90;;;;;;5084747;28;19915;-82
2021/01/18 04:31:56;;;;;;;;;;;4.80;99.90;;;;;;5078619;28;19913;-83
2021/01/18 04:34:22;;;;;;;;;;;4.90;99.90;;;;;;5084167;28;19921;-83
2021/01/18 04:36:48;;;;;;;;;;;4.90;99.90;;;;;;5084805;28;19943;-83
2021/01/18 04:39:14;;;;;;;;;;;4.90;99.90;;;;;;5084895;28;19952;-83
2021/01/18 04:41:40;;;;;;;;;;;4.90;99.90;;;;;;5083801;28;19923;-83
2021/01/18 04:44:07;;;;;;;;;;;4.90;99.90;;;;;;5084256;28;19909;-83
2021/01/18 04:46:36;;;;;;;;;;;4.90;99.90;;;;;;5084086;28;19991;-82
2021/01/18 04:49:01;;;;;;;;;;;5.00;99.90;;;;;;5078325;28;19948;-82
2021/01/18 04:51:27;;;;;;;;;;;4.90;99.90;;;;;;5085235;28;19952;-83
2021/01/18 04:53:53;;;;;;;;;;;5.00;99.90;;;;;;5084112;28;20336;-82
2021/01/18 04:56:31;;;;;;;;;;;5.00;99.90;;;;;;5071400;28;19912;-82
2021/01/18 04:58:59;;;;;;;;;;;5.00;99.90;;;;;;5083297;28;19908;-83
2021/01/18 05:01:28;;;;;;;;;;;4.90;99.90;;;;;;5082468;28;19920;-82
2021/01/18 05:04:02;;;;;;;;;;;5.00;99.90;;;;;;5085114;28;19947;-83
2021/01/18 05:06:33;;;;;;;;;;;5.00;99.90;;;;;;5083064;28;20300;-83
2021/01/18 05:09:22;;;;;;;;;;;5.00;99.90;;;;;;5084031;28;20380;-83
2021/01/18 05:11:48;;;;;;;;;;;5.00;99.90;;;;;;5082325;23;19924;-80
2021/01/18 05:14:14;;;;;;;;;;;5.00;99.90;;;;;;5062996;28;20055;-81
2021/01/18 05:16:43;;;;;;;;;;;4.90;99.90;;;;;;5078919;28;19943;-82
2021/01/18 05:19:09;;;;;;;;;;;5.00;99.90;;;;;;5091805;28;19913;-81
2021/01/18 05:21:42;;;;;;;;;;;4.90;99.90;;;;;;5084930;28;19940;-82
2021/01/18 05:24:08;;;;;;;;;;;4.90;99.90;;;;;;5075975;28;19913;-80
2021/01/18 05:26:33;;;;;;;;;;;4.90;99.90;;;;;;5085469;28;19918;-82
2021/01/18 05:28:59;;;;;;;;;;;4.90;99.90;;;;;;5077458;28;19920;-81
2021/01/18 05:31:27;;;;;;;;;;;5.00;99.90;;;;;;5072839;28;19912;-80
2021/01/18 05:34:00;;;;;;;;;;;5.00;99.90;;;;;;5082730;28;19916;-81
2021/01/18 05:36:38;;;;;;;;;;;5.00;99.90;;;;;;5095660;28;20376;-81
2021/01/18 05:39:07;;;;;;;;;;;5.00;99.90;;;;;;5083636;28;20420;-81
2021/01/18 05:41:33;;;;;;;;;;;5.00;99.90;;;;;;5095588;28;19915;-82
2021/01/18 05:44:02;;;;;;;;;;;5.00;99.90;;;;;;5078666;28;20383;-83
2021/01/18 05:46:27;;;;;;;;;;;5.00;99.90;;;;;;5076194;28;20292;-81
2021/01/18 05:48:54;;;;;;;;;;;5.00;99.90;;;;;;5068871;28;19912;-81
2021/01/18 05:51:20;;;;;;;;;;;5.00;99.90;;;;;;5086353;28;19919;-82
2021/01/18 05:53:45;;;;;;;;;;;5.00;99.90;;;;;;5074226;28;19920;-82
2021/01/18 05:56:18;;;;;;;;;;;5.00;99.90;;;;;;5078208;28;19946;-82
2021/01/18 05:58:44;;;;;;;;;;;5.00;99.90;;;;;;5080388;28;19947;-82
2021/01/18 06:01:09;;;;;;;;;;;5.00;99.90;;;;;;5079934;28;19919;-81
2021/01/18 06:03:35;;;;;;;;;;;5.00;99.90;;;;;;5091254;28;19967;-79
2021/01/18 06:06:00;;;;;;;;;;;5.00;99.90;;;;;;5064397;28;20011;-81
2021/01/18 06:08:26;;;;;;;;;;;5.00;99.90;;;;;;5088608;28;19912;-81
2021/01/18 06:10:55;;;;;;;;;;;5.00;99.90;;;;;;5089157;28;19916;-79
2021/01/18 06:13:25;;;;;;;;;;;5.00;99.90;;;;;;5096538;28;20572;-79
2021/01/18 06:16:03;;;;;;;;;;;5.00;99.90;;;;;;5088466;28;19913;-81
2021/01/18 06:18:35;;;;;;;;;;;5.00;99.90;;;;;;5096055;28;20033;-82
2021/01/18 06:21:01;;;;;;;;;;;4.90;99.90;;;;;;5088909;28;19916;-79
2021/01/18 06:23:26;;;;;;;;;;;4.90;99.90;;;;;;5077827;28;19919;-79
2021/01/18 06:25:53;;;;;;;;;;;5.00;99.90;;;;;;5076903;28;19930;-81
2021/01/18 06:28:35;;;;;;;;;;;4.90;99.90;;;;;;5094387;28;19955;-79
2021/01/18 06:31:00;;;;;;;;;;;4.90;99.90;;;;;;5077986;28;19913;-78
2021/01/18 06:33:45;;;;;;;;;;;4.90;99.90;;;;;;5078353;28;20004;-78
2021/01/18 06:36:15;;;;;;;;;;;4.90;99.90;;;;;;5091907;28;19913;-78
2021/01/18 06:38:42;;;;;;;;;;;4.90;99.90;;;;;;5095187;28;20376;-79
2021/01/18 06:41:08;;;;;;;;;;;4.80;99.90;;;;;;5060969;28;19913;-78
2021/01/18 06:43:34;;;;;;;;;;;4.80;99.90;;;;;;5060820;28;19964;-81
2021/01/18 06:46:12;;;;;;;;;;;4.80;99.90;;;;;;5089535;28;20020;-80
2021/01/18 06:48:38;;;;;;;;;;;4.80;99.90;;;;;;5098082;28;19908;-80
2021/01/18 06:51:09;;;;;;;;;;;4.80;99.90;;;;;;5078817;28;20011;-79
2021/01/18 06:53:40;;;;;;;;;;;4.80;99.90;;;;;;5091828;28;19916;-81
2021/01/18 06:56:11;;;;;;;;;;;4.80;99.90;;;;;;5073338;28;20257;-78
2021/01/18 06:58:56;;;;;;;;;;;4.90;99.90;;;;;;5069415;28;20407;-80
2021/01/18 07:01:28;;;;;;;;;;;4.90;99.90;;;;;;5076955;28;19909;-81
2021/01/18 07:03:57;;;;;;;;;;;4.90;99.90;;;;;;5080826;28;19916;-78
2021/01/18 07:06:32;;;;;;;;;;;4.90;99.90;;;;;;5093294;28;19970;-80
2021/01/18 07:08:59;;;;;;;;;;;4.90;99.90;;;;;;5079343;28;19912;-80
2021/01/18 07:11:25;;;;;;;;;;;4.90;99.90;;;;;;5064197;28;20428;-80
2021/01/18 07:13:51;;;;;;;;;;;5.00;99.90;;;;;;5068323;28;19967;-79
2021/01/18 07:16:18;;;;;;;;;;;5.10;99.90;;;;;;5076345;28;19913;-79
2021/01/18 07:18:54;;;;;;;;;;;5.10;99.90;;;;;;5076034;28;19912;-80
2021/01/18 07:21:20;;;;;;;;;;;5.10;99.90;;;;;;5078038;28;19908;-80
2021/01/18 07:23:52;;;;;;;;;;;5.10;99.90;;;;;;5067005;28;20382;-80
2021/01/18 07:26:27;;;;;;;;;;;5.20;99.90;;;;;;5057587;28;19909;-81
2021/01/18 07:28:57;;;;;;;;;;;5.20;99.90;;;;;;5058827;28;19963;-80
2021/01/18 07:31:23;;;;;;;;;;;5.20;99.90;;;;;;5057443;28;19909;-80
2021/01/18 07:33:48;;;;;;;;;;;5.20;99.90;;;;;;5058756;28;20537;-81
2021/01/18 07:36:23;;;;;;;;;;;5.10;99.90;;;;;;5057561;28;19992;-82
2021/01/18 07:38:49;;;;;;;;;;;5.10;99.90;;;;;;5065220;28;20000;-80
2021/01/18 07:41:15;;;;;;;;;;;5.20;99.90;;;;;;5074570;28;19952;-82
2021/01/18 07:43:41;;;;;;;;;;;5.10;99.90;;;;;;5076192;28;19919;-82
2021/01/18 07:46:25;;;;;;;;;;;5.10;99.90;;;;;;5076696;28;20357;-81
2021/01/18 07:48:54;;;;;;;;;;;5.20;99.90;;;;;;5084424;28;20390;-82
2021/01/18 07:51:24;;;;;;;;;;;5.10;99.90;;;;;;5061561;28;20392;-82
2021/01/18 07:53:49;;;;;;;;;;;5.20;99.90;;;;;;5063504;28;19927;-82
2021/01/18 07:56:28;;;;;;;;;;;5.20;99.90;;;;;;5077114;28;19912;-84
2021/01/18 07:58:56;;;;;;;;;;;5.20;99.90;;;;;;5057231;28;19913;-82
2021/01/18 08:01:27;;;;;;;;;;;5.20;99.90;;;;;;5061190;28;19983;-82
2021/01/18 08:03:52;;;;;;;;;;;5.30;99.90;;;;;;5057588;28;19913;-81
2021/01/18 08:06:19;;;;;;;;;;;5.30;99.90;;;;;;5084456;28;19936;-81
2021/01/18 08:08:45;;;;;;;;;;;5.40;99.90;;;;;;5096146;28;19912;-79
2021/01/18 08:11:15;;;;;;;;;;;5.50;99.90;;;;;;5090110;28;19930;-82
2021/01/18 08:13:41;;;;;;;;;;;5.50;99.90;;;;;;5057444;28;19917;-80
2021/01/18 08:16:09;;;;;;;;;;;5.60;99.90;;;;;;5073135;28;20455;-81
2021/01/18 08:18:35;;;;;;;;;;;5.60;99.90;;;;;;5069673;28;19958;-80
2021/01/18 08:21:00;;;;;;;;;;;5.70;99.90;;;;;;5076470;28;19917;-81
2021/01/18 08:23:42;;;;;;;;;;;5.80;99.90;;;;;;5074885;28;19912;-80
2021/01/18 08:26:08;;;;;;;;;;;5.90;99.90;;;;;;5060285;28;19912;-83
2021/01/18 08:28:34;;;;;;;;;;;6.00;99.90;;;;;;5075897;28;19919;-82
2021/01/18 08:30:59;;;;;;;;;;;6.10;99.90;;;;;;5074955;28;19936;-82
2021/01/18 08:33:25;;;;;;;;;;;6.30;99.90;;;;;;5076777;28;20280;-82
2021/01/18 08:35:52;;;;;;;;;;;6.30;99.90;;;;;;5063839;28;19967;-82
2021/01/18 08:38:28;;;;;;;;;;;6.30;99.90;;;;;;5075720;28;19951;-82
2021/01/18 08:41:04;;;;;;;;;;;6.40;99.90;;;;;;5087096;28;19971;-82
2021/01/18 08:43:48;;;;;;;;;;;6.40;99.90;;;;;;5075333;28;19917;-82
2021/01/18 08:46:33;;;;;;;;;;;6.30;99.90;;;;;;5072809;28;19916;-82
2021/01/18 08:49:18;;;;;;;;;;;6.40;99.90;;;;;;5073925;28;19919;-81
2021/01/18 08:51:44;;;;;;;;;;;6.40;99.90;;;;;;5062412;28;19920;-82
2021/01/18 08:54:10;;;;;;;;;;;6.40;99.90;;;;;;5059175;28;19925;-83
2021/01/18 08:56:37;;;;;;;;;;;6.40;99.90;;;;;;5084909;28;19912;-82
2021/01/18 08:59:13;;;;;;;;;;;6.30;99.90;;;;;;5090360;28;19959;-83
2021/01/18 09:01:39;;;;;;;;;;;6.40;99.90;;;;;;5090896;28;20387;-84
2021/01/18 09:04:07;;;;;;;;;;;6.50;99.90;;;;;;5092923;28;19912;-82
2021/01/18 09:06:35;;;;;;;;;;;6.60;99.90;;;;;;5077679;28;20317;-83
2021/01/18 09:09:04;;;;;;;;;;;6.70;99.90;;;;;;5074270;28;20342;-82
2021/01/18 09:11:32;;;;;;;;;;;6.70;99.90;;;;;;5055694;28;19912;-83
2021/01/18 09:13:58;;;;;;;;;;;6.80;99.90;;;;;;5078193;28;20194;-83
2021/01/18 09:16:23;;;;;;;;;;;6.90;99.90;;;;;;5073153;28;20008;-82
2021/01/18 09:18:49;;;;;;;;;;;6.90;99.90;;;;;;5074545;28;19909;-83
2021/01/18 09:21:16;;;;;;;;;;;6.80;99.90;;;;;;5083643;28;19928;-83
2021/01/18 09:23:42;;;;;;;;;;;6.70;99.90;;;;;;5075827;28;19956;-82
2021/01/18 09:26:11;;;;;;;;;;;6.60;99.90;;;;;;5068733;28;19912;-82
2021/01/18 09:28:41;;;;;;;;;;;6.50;99.90;;;;;;5076749;28;19908;-83
2021/01/18 09:31:13;;;;;;;;;;;6.50;99.90;;;;;;5077093;28;19912;-83
2021/01/18 09:33:39;;;;;;;;;;;6.40;99.90;;;;;;5079963;28;20647;-81
2021/01/18 09:36:10;;;;;;;;;;;6.40;99.90;;;;;;5077868;28;19951;-82
2021/01/18 09:38:35;;;;;;;;;;;6.50;99.90;;;;;;5080221;28;19909;-83
2021/01/18 09:41:00;;;;;;;;;;;6.60;99.90;;;;;;5078979;28;20311;-82
2021/01/18 09:43:26;;;;;;;;;;;6.70;99.90;;;;;;5068962;28;19936;-82
2021/01/18 09:45:55;;;;;;;;;;;6.90;99.90;;;;;;5069459;28;19913;-83
2021/01/18 09:48:22;;;;;;;;;;;7.00;99.90;;;;;;5078383;28;19916;-82
2021/01/18 09:50:48;;;;;;;;;;;7.10;99.90;;;;;;5079409;28;20383;-83
2021/01/18 09:53:13;;;;;;;;;;;7.20;99.90;;;;;;5079498;28;19920;-83
2021/01/18 09:55:45;;;;;;;;;;;7.20;99.90;;;;;;5069803;28;20284;-82
2021/01/18 09:58:18;;;;;;;;;;;7.30;99.90;;;;;;5078324;28;19922;-85
2021/01/18 10:00:45;;;;;;;;;;;7.40;99.90;;;;;;5078454;28;19917;-83
2021/01/18 10:03:11;;;;;;;;;;;7.50;99.90;;;;;;5080165;28;19956;-85
2021/01/18 10:05:41;;;;;;;;;;;7.60;99.90;;;;;;5097178;28;19919;-84
2021/01/18 10:08:16;;;;;;;;;;;7.70;99.90;;;;;;5077329;28;19913;-83
2021/01/18 10:10:45;;;;;;;;;;;7.80;99.90;;;;;;5085419;28;19935;-84
2021/01/18 10:13:19;;;;;;;;;;;7.90;99.90;;;;;;5078008;28;19931;-84
2021/01/18 10:15:45;;;;;;;;;;;7.90;99.90;;;;;;5090047;28;19912;-83
2021/01/18 10:18:29;;;;;;;;;;;8.00;99.90;;;;;;5085040;28;20288;-84
2021/01/18 10:20:55;;;;;;;;;;;8.00;99.90;;;;;;5079280;28;19913;-82
2021/01/18 10:23:20;;;;;;;;;;;8.10;99.90;;;;;;5070357;28;19999;-82
2021/01/18 10:25:46;;;;;;;;;;;8.30;99.90;;;;;;5074806;28;19919;-82
2021/01/18 10:28:18;;;;;;;;;;;8.40;99.90;;;;;;5086053;28;19916;-82
2021/01/18 10:30:44;;;;;;;;;;;8.60;99.90;;;;;;5076954;28;19912;-84
2021/01/18 10:33:15;;;;;;;;;;;8.90;99.90;;;;;;5075731;28;20367;-83
2021/01/18 10:35:40;;;;;;;;;;;9.00;99.90;;;;;;5085067;28;19952;-82
2021/01/18 10:38:32;;;;;;;;;;;9.20;99.90;;;;;;5079797;28;19916;-82
2021/01/18 10:41:02;;;;;;;;;;;9.30;99.90;;;;;;5061173;28;19912;-83
2021/01/18 10:43:28;;;;;;;;;;;9.40;99.90;;;;;;5088139;28;19912;-83
2021/01/18 10:45:53;;;;;;;;;;;9.40;99.90;;;;;;5080176;28;19913;-83
2021/01/18 10:48:25;;;;;;;;;;;9.50;99.90;;;;;;5077224;28;19930;-82
2021/01/18 10:50:54;;;;;;;;;;;9.70;99.90;;;;;;5066415;28;19920;-83
2021/01/18 10:53:25;;;;;;;;;;;10.00;99.90;;;;;;5077438;28;19978;-84
2021/01/18 10:55:51;;;;;;;;;;;10.40;99.90;;;;;;5078355;28;19916;-83
2021/01/18 10:58:26;;;;;;;;;;;10.60;99.90;;;;;;5079725;28;20002;-84
2021/01/18 11:00:51;;;;;;;;;;;10.60;99.90;;;;;;5084989;28;20010;-84
2021/01/18 11:03:22;;;;;;;;;;;10.60;99.90;;;;;;5089594;28;19917;-84
2021/01/18 11:05:47;;;;;;;;;;;10.50;99.90;;;;;;5089004;28;19959;-84
2021/01/18 11:08:13;;;;;;;;;;;10.50;99.90;;;;;;5092620;28;19912;-82
2021/01/18 11:10:40;;;;;;;;;;;10.50;99.90;;;;;;5078510;28;20150;-83
2021/01/18 11:13:05;;;;;;;;;;;10.20;99.90;;;;;;5091387;22;20445;-79
2021/01/18 11:15:32;;;;;;;;;;;9.90;99.90;;;;;;5074043;28;19917;-82
2021/01/18 11:17:57;;;;;;;;;;;9.60;99.90;;;;;;5069053;28;19913;-81
2021/01/18 11:20:24;;;;;;;;;;;9.40;99.90;;;;;;5074313;28;20451;-82
2021/01/18 11:22:50;;;;;;;;;;;9.10;99.90;;;;;;5073977;28;20288;-82
2021/01/18 11:25:15;;;;;;;;;;;9.00;99.90;;;;;;5074207;28;19912;-83
2021/01/18 11:27:41;;;;;;;;;;;8.80;99.90;;;;;;5059866;28;19913;-83
2021/01/18 11:30:06;;;;;;;;;;;8.70;99.90;;;;;;5062305;28;19913;-82
2021/01/18 11:32:32;;;;;;;;;;;8.70;99.90;;;;;;5090769;28;19919;-82
2021/01/18 11:34:57;;;;;;;;;;;8.80;99.90;;;;;;5080481;28;19921;-83
2021/01/18 11:37:23;;;;;;;;;;;9.10;99.90;;;;;;5075632;28;19965;-83
2021/01/18 11:39:48;;;;;;;;;;;9.70;99.90;;;;;;5076860;28;19914;-83
2021/01/18 11:42:14;;;;;;;;;;;10.80;99.90;;;;;;5073628;28;19913;-83
2021/01/18 11:44:39;;;;;;;;;;;11.90;99.90;;;;;;5072342;28;19920;-83
2021/01/18 11:47:04;;;;;;;;;;;12.50;99.90;;;;;;5067399;28;19919;-83
2021/01/18 11:49:30;;;;;;;;;;;12.70;99.90;;;;;;5074281;28;19952;-83
2021/01/18 11:51:57;;;;;;;;;;;12.90;99.90;;;;;;5075414;28;19935;-82
2021/01/18 11:54:23;;;;;;;;;;;13.00;99.90;;;;;;5068998;28;19916;-83
2021/01/18 11:56:48;;;;;;;;;;;13.20;99.90;;;;;;5076531;28;19919;-82
2021/01/18 11:59:14;;;;;;;;;;;13.00;99.90;;;;;;5077683;28;20296;-82
2021/01/18 12:01:40;;;;;;;;;;;13.40;99.90;;;;;;5074909;28;19912;-83
2021/01/18 12:04:06;;;;;;;;;;;13.80;99.90;;;;;;5069923;28;19958;-83
2021/01/18 12:06:33;;;;;;;;;;;14.50;99.90;;;;;;5073296;28;19968;-83
2021/01/18 12:08:58;;;;;;;;;;;14.70;99.90;;;;;;5078033;28;19913;-83
2021/01/18 12:11:23;;;;;;;;;;;14.60;99.90;;;;;;5074848;28;19913;-83
2021/01/18 12:13:49;;;;;;;;;;;14.30;99.90;;;;;;5057028;28;19921;-82
2021/01/18 12:16:21;;;;;;;;;;;13.80;99.90;;;;;;5076811;28;19935;-83
2021/01/18 12:18:46;;;;;;;;;;;13.40;99.90;;;;;;5076126;28;19920;-83
2021/01/18 12:21:12;;;;;;;;;;;13.20;99.90;;;;;;5076567;28;19916;-83
2021/01/18 12:23:37;;;;;;;;;;;13.10;99.90;;;;;;5069097;28;19913;-83
2021/01/18 12:26:03;;;;;;;;;;;13.20;99.90;;;;;;5078797;28;19917;-83
2021/01/18 12:28:28;;;;;;;;;;;13.00;99.90;;;;;;5079145;28;19908;-84
2021/01/18 12:30:53;;;;;;;;;;;12.70;99.90;;;;;;5080011;28;19970;-85
2021/01/18 12:33:19;;;;;;;;;;;12.20;99.90;;;;;;5079627;28;20518;-84
2021/01/18 12:35:44;;;;;;;;;;;11.80;99.90;;;;;;5079030;28;19927;-84
2021/01/18 12:38:10;;;;;;;;;;;11.40;99.90;;;;;;5079067;28;19962;-84
2021/01/18 12:40:35;;;;;;;;;;;11.30;99.90;;;;;;5061148;28;19920;-85
2021/01/18 12:43:01;;;;;;;;;;;11.20;99.90;;;;;;5066058;28;19912;-84
2021/01/18 12:45:29;;;;;;;;;;;11.20;99.90;;;;;;5073709;28;20458;-85
2021/01/18 12:47:54;;;;;;;;;;;11.20;99.90;;;;;;5079785;28;19920;-85
2021/01/18 12:50:20;;;;;;;;;;;10.90;99.90;;;;;;5080647;28;19909;-84
2021/01/18 12:52:46;;;;;;;;;;;10.60;99.90;;;;;;5081112;28;19948;-85
2021/01/18 12:55:11;;;;;;;;;;;10.30;99.90;;;;;;5073757;28;19966;-84
2021/01/18 12:57:37;;;;;;;;;;;10.20;99.90;;;;;;5078633;28;19908;-85
2021/01/18 13:00:09;;;;;;;;;;;10.00;99.90;;;;;;5078177;28;20266;-84
2021/01/18 13:02:38;;;;;;;;;;;9.80;99.90;;;;;;5084123;28;20395;-84
2021/01/18 13:05:04;;;;;;;;;;;9.60;99.90;;;;;;5077948;28;19915;-84
2021/01/18 13:07:29;;;;;;;;;;;9.40;99.90;;;;;;5074658;28;19912;-84
2021/01/18 13:09:58;;;;;;;;;;;9.20;99.90;;;;;;5083552;28;20414;-84
2021/01/18 13:12:23;;;;;;;;;;;9.10;99.90;;;;;;5081359;28;19923;-84
2021/01/18 13:14:49;;;;;;;;;;;9.10;99.90;;;;;;5082172;28;19916;-84
2021/01/18 13:17:15;;;;;;;;;;;9.10;99.90;;;;;;5082362;28;20429;-85
2021/01/18 13:19:40;;;;;;;;;;;9.20;99.90;;;;;;5073650;28;19917;-85
2021/01/18 13:22:06;;;;;;;;;;;9.30;99.90;;;;;;5082304;28;19994;-83
2021/01/18 13:24:31;;;;;;;;;;;9.30;99.90;;;;;;5083549;28;19917;-85
2021/01/18 13:26:57;;;;;;;;;;;9.30;99.90;;;;;;5083314;28;19909;-84
2021/01/18 13:29:22;;;;;;;;;;;9.40;99.90;;;;;;5084135;28;19954;-84
2021/01/18 13:31:48;;;;;;;;;;;9.40;99.90;;;;;;5083117;28;19932;-84
2021/01/18 13:34:13;;;;;;;;;;;9.40;99.90;;;;;;5080889;28;19920;-84
2021/01/18 13:36:39;;;;;;;;;;;9.30;99.90;;;;;;5067312;28;19944;-85
2021/01/18 13:39:06;;;;;;;;;;;9.20;99.90;;;;;;5083063;28;20398;-84
2021/01/18 13:41:31;;;;;;;;;;;9.10;99.90;;;;;;5079835;28;19924;-85
2021/01/18 13:43:57;;;;;;;;;;;9.10;99.90;;;;;;5083401;28;19916;-84
2021/01/18 13:46:24;;;;;;;;;;;9.10;99.90;;;;;;5083257;28;19924;-84
2021/01/18 13:48:50;;;;;;;;;;;9.20;99.90;;;;;;5065336;28;20288;-84
2021/01/18 13:51:16;;;;;;;;;;;9.20;99.90;;;;;;5072496;28;19913;-84
2021/01/18 13:53:42;;;;;;;;;;;9.20;99.90;;;;;;5062675;28;20340;-84
2021/01/18 13:56:08;;;;;;;;;;;9.20;99.90;;;;;;5071043;28;19912;-85
2021/01/18 13:58:34;;;;;;;;;;;9.10;99.90;;;;;;5083336;28;20275;-85
2021/01/18 14:00:59;;;;;;;;;;;9.00;99.90;;;;;;5084196;28;19912;-85
2021/01/18 14:03:25;;;;;;;;;;;9.00;99.90;;;;;;5083276;28;20303;-85
2021/01/18 14:05:50;;;;;;;;;;;8.90;99.90;;;;;;5083559;28;19912;-84
2021/01/18 14:08:16;;;;;;;;;;;8.80;99.90;;;;;;5073926;28;19912;-84
2021/01/18 14:10:41;;;;;;;;;;;8.70;99.90;;;;;;5083658;28;19915;-84
2021/01/18 14:13:06;;;;;;;;;;;8.60;99.90;;;;;;5076806;28;20478;-84
2021/01/18 14:15:32;;;;;;;;;;;8.60;99.90;;;;;;5087186;28;19908;-84
2021/01/18 14:17:57;;;;;;;;;;;8.60;99.90;;;;;;5100805;28;19908;-83
2021/01/18 14:20:23;;;;;;;;;;;8.60;99.90;;;;;;5093040;28;19923;-83
2021/01/18 14:22:48;;;;;;;;;;;8.50;99.90;;;;;;5082878;28;20007;-83
2021/01/18 14:25:14;;;;;;;;;;;8.40;99.90;;;;;;5081139;28;19913;-83
2021/01/18 14:27:43;;;;;;;;;;;8.40;99.90;;;;;;5080281;28;19909;-83
2021/01/18 14:30:09;;;;;;;;;;;8.30;99.90;;;;;;5081226;28;20344;-83
2021/01/18 14:32:34;;;;;;;;;;;8.40;99.90;;;;;;5085112;28;19965;-83